Time;durP1;ratioP1;P1;durP2;ratioP2;P2;SDS_P1;SDS_P2;PMS_P1;PMS_P2;Temp;Humidity;BMP_temperature;BMP_pressure;BME280_temperature;BME280_humidity;BME280_pressure;Samples;Min_cycle;Max_cycle;Signal;HPM_P1;HPM_P2
2021/07/31 00:01:08;;;;;;;6.78;3.20;;;;;;;15.53;100.00;99480.44;4985881;28;20042;-79
2021/07/31 00:03:33;;;;;;;9.60;3.20;;;;;;;15.48;100.00;99475.47;4990582;28;20019;-79
2021/07/31 00:05:58;;;;;;;5.32;2.70;;;;;;;15.45;100.00;99474.78;4991406;28;20053;-79
2021/07/31 00:08:24;;;;;;;5.97;2.70;;;;;;;15.38;100.00;99459.47;4990624;28;20026;-79
2021/07/31 00:10:50;;;;;;;5.68;2.97;;;;;;;15.34;100.00;99460.56;4989826;28;20050;-79
2021/07/31 00:13:15;;;;;;;8.45;2.50;;;;;;;15.29;100.00;99454.75;4976748;28;20027;-79
2021/07/31 00:15:40;;;;;;;5.97;2.50;;;;;;;15.30;100.00;99463.41;4976584;28;20022;-79
2021/07/31 00:18:05;;;;;;;7.57;2.92;;;;;;;15.35;100.00;99457.00;4976440;28;20391;-79
2021/07/31 00:20:31;;;;;;;7.55;2.67;;;;;;;15.31;100.00;99454.66;4977077;28;20101;-79
2021/07/31 00:22:56;;;;;;;7.47;2.70;;;;;;;15.27;100.00;99459.22;4977920;28;20081;-80
2021/07/31 00:25:21;;;;;;;6.93;2.75;;;;;;;15.31;100.00;99454.66;4977855;28;20019;-79
2021/07/31 00:27:46;;;;;;;5.40;2.50;;;;;;;15.29;100.00;99461.75;4976120;28;20039;-79
2021/07/31 00:30:12;;;;;;;7.10;2.95;;;;;;;15.34;100.00;99457.13;4976226;28;20390;-79
2021/07/31 00:32:37;;;;;;;7.82;3.05;;;;;;;15.23;100.00;99444.63;4975851;28;20023;-79
2021/07/31 00:35:02;;;;;;;7.25;2.90;;;;;;;15.25;100.00;99462.84;4977688;28;20021;-79
2021/07/31 00:37:28;;;;;;;7.55;3.08;;;;;;;15.27;100.00;99459.22;4975725;28;20027;-79
2021/07/31 00:39:53;;;;;;;5.95;2.85;;;;;;;15.25;100.00;99458.47;4975643;28;20034;-79
2021/07/31 00:42:19;;;;;;;7.07;3.13;;;;;;;15.22;100.00;99450.78;4975869;28;20575;-79
2021/07/31 00:44:44;;;;;;;6.43;3.47;;;;;;;15.18;100.00;99449.28;4976770;28;20031;-79
2021/07/31 00:47:09;;;;;;;7.45;3.15;;;;;;;15.19;100.00;99445.75;4975545;28;20043;-79
2021/07/31 00:49:35;;;;;;;6.28;3.28;;;;;;;15.25;100.00;99447.16;4977050;28;20027;-79
2021/07/31 00:52:03;;;;;;;7.72;3.25;;;;;;;15.17;100.00;99435.34;4976935;28;20031;-79
2021/07/31 00:54:29;;;;;;;7.38;3.83;;;;;;;15.11;100.00;99440.91;4977158;28;20484;-79
2021/07/31 00:56:54;;;;;;;7.57;3.90;;;;;;;15.15;100.00;99439.00;4975406;28;20022;-79
2021/07/31 00:59:20;;;;;;;9.60;5.28;;;;;;;15.07;100.00;99435.97;4975531;28;20053;-79
2021/07/31 01:01:46;;;;;;;11.75;5.72;;;;;;;15.00;100.00;99435.47;4975412;28;20030;-79
2021/07/31 01:04:11;;;;;;;9.82;5.97;;;;;;;15.00;100.00;99437.22;4976272;28;20077;-79
2021/07/31 01:06:36;;;;;;;10.80;6.00;;;;;;;14.96;100.00;99441.75;4975735;28;20023;-80
2021/07/31 01:09:02;;;;;;;12.02;7.05;;;;;;;14.91;100.00;99452.47;4976590;28;20027;-79
2021/07/31 01:11:27;;;;;;;10.02;6.95;;;;;;;14.88;100.00;99441.34;4976786;28;20101;-79
2021/07/31 01:13:53;;;;;;;10.60;7.38;;;;;;;14.92;100.00;99443.69;4979604;28;20535;-79
2021/07/31 01:16:19;;;;;;;11.95;8.32;;;;;;;14.94;100.00;99447.06;4978842;28;20027;-79
2021/07/31 01:18:44;;;;;;;12.68;8.13;;;;;;;14.86;100.00;99445.78;4980249;28;20025;-79
2021/07/31 01:21:31;;;;;;;9.85;7.57;;;;;;;14.86;100.00;99446.63;4979910;28;20062;-81
2021/07/31 01:23:57;;;;;;;12.60;8.05;;;;;;;14.86;100.00;99437.97;4980478;28;20110;-79
2021/07/31 01:26:23;;;;;;;11.20;6.85;;;;;;;14.85;100.00;99433.69;4979587;28;20058;-79
2021/07/31 01:28:48;;;;;;;11.05;6.55;;;;;;;14.87;100.00;99443.13;4978161;28;20023;-79
2021/07/31 01:31:13;;;;;;;9.20;5.97;;;;;;;14.89;100.00;99440.41;4979056;28;20498;-79
2021/07/31 01:33:38;;;;;;;10.27;6.32;;;;;;;14.91;100.00;99447.25;4977636;28;20031;-79
2021/07/31 01:36:06;;;;;;;8.40;5.55;;;;;;;14.93;100.00;99447.13;4978032;28;20033;-79
2021/07/31 01:38:31;;;;;;;10.68;5.75;;;;;;;14.83;100.00;99443.34;4979483;28;20097;-79
2021/07/31 01:40:56;;;;;;;10.40;4.78;;;;;;;14.84;100.00;99442.41;4977770;28;20065;-79
2021/07/31 01:43:21;;;;;;;7.78;3.90;;;;;;;14.77;100.00;99444.50;4978755;28;20029;-79
2021/07/31 01:45:49;;;;;;;7.55;4.15;;;;;;;14.73;100.00;99443.00;4979109;28;20165;-79
2021/07/31 01:48:14;;;;;;;8.07;3.08;;;;;;;14.70;100.00;99440.56;4977434;28;20033;-79
2021/07/31 01:50:42;;;;;;;8.80;3.10;;;;;;;14.69;100.00;99441.50;4977579;28;20031;-80
2021/07/31 01:53:07;;;;;;;5.65;2.88;;;;;;;14.64;100.00;99433.88;4977709;28;20494;-80
2021/07/31 01:55:33;;;;;;;7.65;2.83;;;;;;;14.63;100.00;99439.22;4975496;28;20097;-79
2021/07/31 01:57:58;;;;;;;14.52;3.22;;;;;;;14.65;100.00;99437.34;4974326;28;20031;-79
2021/07/31 02:00:23;;;;;;;7.97;2.80;;;;;;;14.54;100.00;99430.09;4974568;28;20023;-79
2021/07/31 02:02:48;;;;;;;7.15;2.70;;;;;;;14.50;100.00;99437.22;4974069;28;20110;-79
2021/07/31 02:05:14;;;;;;;8.57;3.05;;;;;;;14.44;100.00;99441.88;4975006;28;20022;-79
2021/07/31 02:07:39;;;;;;;6.53;2.60;;;;;;;14.37;100.00;99433.53;4975380;28;20371;-79
2021/07/31 02:10:05;;;;;;;10.75;2.83;;;;;;;14.33;100.00;99428.56;4974309;28;20066;-79
2021/07/31 02:12:30;;;;;;;7.68;3.03;;;;;;;14.27;100.00;99422.72;4975438;28;20031;-79
2021/07/31 02:14:55;;;;;;;6.68;2.80;;;;;;;14.22;100.00;99426.50;4974430;28;20042;-79
2021/07/31 02:17:20;;;;;;;7.05;2.63;;;;;;;14.17;100.00;99428.50;4975352;28;20037;-79
2021/07/31 02:19:46;;;;;;;6.50;2.45;;;;;;;14.18;100.00;99431.03;4973997;28;20423;-79
2021/07/31 02:22:11;;;;;;;5.60;2.42;;;;;;;14.14;100.00;99426.91;4977164;28;20117;-79
2021/07/31 02:24:36;;;;;;;7.05;2.30;;;;;;;14.11;100.00;99416.63;4977976;28;20125;-79
2021/07/31 02:27:02;;;;;;;8.85;2.55;;;;;;;14.07;100.00;99417.72;4979356;28;20039;-79
2021/07/31 02:29:27;;;;;;;10.20;2.80;;;;;;;14.14;100.00;99411.25;4978843;28;20026;-79
2021/07/31 02:31:52;;;;;;;5.50;2.20;;;;;;;14.24;100.00;99417.69;4979331;28;20029;-79
2021/07/31 02:34:18;;;;;;;7.40;2.53;;;;;;;14.25;100.00;99413.28;4978521;28;20026;-79
2021/07/31 02:36:43;;;;;;;10.23;2.80;;;;;;;14.34;100.00;99418.03;4975070;28;20476;-79
2021/07/31 02:39:08;;;;;;;8.82;2.47;;;;;;;14.32;100.00;99409.47;4975431;28;20045;-79
2021/07/31 02:41:33;;;;;;;7.35;2.40;;;;;;;14.36;100.00;99408.38;4974708;28;20492;-79
2021/07/31 02:43:59;;;;;;;6.28;2.30;;;;;;;14.30;100.00;99413.91;4973535;28;20284;-79
2021/07/31 02:46:24;;;;;;;8.45;2.50;;;;;;;14.32;100.00;99414.69;4974798;28;20129;-79
2021/07/31 02:48:50;;;;;;;7.88;2.13;;;;;;;14.22;100.00;99414.31;4973730;28;20039;-79
2021/07/31 02:51:17;;;;;;;6.43;2.47;;;;;;;14.16;100.00;99406.81;4974837;28;20093;-79
2021/07/31 02:53:43;;;;;;;9.68;2.80;;;;;;;14.11;100.00;99398.38;4977743;28;20091;-79
2021/07/31 02:56:08;;;;;;;7.05;2.67;;;;;;;14.09;100.00;99399.38;4977176;28;20491;-79
2021/07/31 02:58:33;;;;;;;8.10;2.72;;;;;;;14.01;100.00;99391.97;4978022;28;20086;-79
2021/07/31 03:01:07;;;;;;;7.72;2.90;;;;;;;13.91;100.00;99386.34;4977567;28;20113;-79
2021/07/31 03:03:33;;;;;;;7.68;3.00;;;;;;;13.97;100.00;99385.19;4976885;28;20077;-79
2021/07/31 03:05:59;;;;;;;5.85;2.58;;;;;;;13.92;100.00;99387.22;4976699;28;20436;-79
2021/07/31 03:08:27;;;;;;;7.47;3.22;;;;;;;13.89;100.00;99390.81;4978190;28;20030;-80
2021/07/31 03:10:54;;;;;;;7.72;2.90;;;;;;;13.92;100.00;99388.06;4977668;28;20363;-81
2021/07/31 03:13:19;;;;;;;8.55;3.03;;;;;;;13.95;100.00;99380.06;4977635;28;20043;-79
2021/07/31 03:15:45;;;;;;;6.10;2.95;;;;;;;14.05;100.00;99376.06;4977720;28;20106;-79
2021/07/31 03:18:10;;;;;;;5.43;2.70;;;;;;;14.05;100.00;99378.66;4977483;28;20023;-79
2021/07/31 03:20:35;;;;;;;6.63;2.50;;;;;;;14.08;100.00;99376.84;4977074;28;20445;-79
2021/07/31 03:23:00;;;;;;;8.05;2.63;;;;;;;14.12;100.00;99379.19;4976221;28;20031;-79
2021/07/31 03:25:26;;;;;;;7.40;2.33;;;;;;;14.15;100.00;99368.59;4975495;28;20030;-79
2021/07/31 03:27:51;;;;;;;6.40;1.92;;;;;;;14.15;100.00;99367.75;4977949;28;20089;-79
2021/07/31 03:30:16;;;;;;;7.53;2.10;;;;;;;14.22;100.00;99363.91;4979709;28;20102;-79
2021/07/31 03:32:42;;;;;;;5.55;2.10;;;;;;;14.20;100.00;99361.41;4979719;28;20034;-79
2021/07/31 03:35:07;;;;;;;5.60;2.10;;;;;;;14.18;100.00;99367.59;4979762;28;20034;-79
2021/07/31 03:37:33;;;;;;;6.38;2.33;;;;;;;14.22;100.00;99353.47;4979627;28;20458;-79
2021/07/31 03:39:59;;;;;;;5.63;1.92;;;;;;;14.18;100.00;99350.19;4979378;28;20376;-79
2021/07/31 03:42:24;;;;;;;6.85;2.20;;;;;;;14.23;100.00;99353.41;4980810;28;20023;-79
2021/07/31 03:44:50;;;;;;;5.82;2.00;;;;;;;14.27;100.00;99359.31;4981056;28;20022;-79
2021/07/31 03:47:15;;;;;;;8.10;2.20;;;;;;;14.28;100.00;99353.16;4979355;28;20034;-79
2021/07/31 03:49:40;;;;;;;5.80;2.13;;;;;;;14.26;100.00;99352.41;4978970;28;20033;-80
2021/07/31 03:52:05;;;;;;;8.18;2.20;;;;;;;14.33;100.00;99356.38;4980855;28;20031;-80
2021/07/31 03:54:32;;;;;;;9.93;2.25;;;;;;;14.30;100.00;99348.72;4979044;28;20025;-80
2021/07/31 03:56:57;;;;;;;7.32;2.08;;;;;;;14.29;100.00;99347.03;4978550;28;20053;-79
2021/07/31 03:59:23;;;;;;;7.05;1.85;;;;;;;14.32;100.00;99354.69;4978455;28;20058;-79
2021/07/31 04:01:48;;;;;;;5.75;2.08;;;;;;;14.35;100.00;99351.94;4980240;28;20031;-79
2021/07/31 04:04:13;;;;;;;6.50;1.75;;;;;;;14.28;100.00;99353.16;4980067;28;20078;-79
2021/07/31 04:06:38;;;;;;;4.30;1.88;;;;;;;14.21;100.00;99351.81;4979654;28;20118;-79
2021/07/31 04:09:04;;;;;;;5.07;2.10;;;;;;;14.18;100.00;99355.41;4978080;28;20030;-79
2021/07/31 04:11:30;;;;;;;6.53;2.10;;;;;;;14.15;100.00;99352.13;4977800;28;20023;-79
2021/07/31 04:13:55;;;;;;;9.10;1.98;;;;;;;14.13;100.00;99356.56;4979085;28;20467;-79
2021/07/31 04:16:21;;;;;;;6.22;1.90;;;;;;;14.09;100.00;99344.63;4977937;28;20027;-79
2021/07/31 04:18:46;;;;;;;6.78;2.00;;;;;;;14.05;100.00;99347.38;4978734;28;20446;-79
2021/07/31 04:21:11;;;;;;;6.07;2.15;;;;;;;14.05;100.00;99339.56;4978700;28;20058;-79
2021/07/31 04:23:37;;;;;;;7.80;2.10;;;;;;;14.18;100.00;99346.75;4978984;28;20392;-79
2021/07/31 04:26:15;;;;;;;7.50;2.03;;;;;;;14.15;100.00;99342.53;4978573;28;20027;-79
2021/07/31 04:28:41;;;;;;;5.70;1.85;;;;;;;14.15;100.00;99339.91;4978843;28;20029;-79
2021/07/31 04:31:11;;;;;;;5.35;1.98;;;;;;;14.15;100.00;99341.69;4977586;28;20027;-79
2021/07/31 04:33:37;;;;;;;13.38;2.22;;;;;;;14.15;100.00;99336.47;4977773;28;20027;-79
2021/07/31 04:36:03;;;;;;;6.80;2.28;;;;;;;14.34;100.00;99339.78;4979005;28;20387;-79
2021/07/31 04:38:30;;;;;;;4.35;1.85;;;;;;;14.36;100.00;99342.31;4977831;28;20038;-79
2021/07/31 04:40:55;;;;;;;8.18;1.77;;;;;;;14.26;100.00;99342.81;4979096;28;20077;-80
2021/07/31 04:43:21;;;;;;;5.70;2.15;;;;;;;14.22;100.00;99343.91;4977910;28;20486;-80
2021/07/31 04:45:46;;;;;;;9.85;2.00;;;;;;;14.29;100.00;99344.44;4978506;28;20035;-80
2021/07/31 04:48:11;;;;;;;5.43;1.65;;;;;;;14.38;100.00;99336.09;4977877;28;20034;-80
2021/07/31 04:50:36;;;;;;;7.18;1.83;;;;;;;14.80;100.00;99345.16;4978249;28;20126;-80
2021/07/31 04:53:01;;;;;;;7.50;2.00;;;;;;;14.88;100.00;99337.75;4980609;28;20360;-79
2021/07/31 04:55:27;;;;;;;10.35;2.78;;;;;;;14.72;100.00;99336.94;4982624;28;20015;-80
2021/07/31 04:57:52;;;;;;;9.07;1.75;;;;;;;14.66;100.00;99334.66;4975833;28;20105;-80
2021/07/31 05:00:17;;;;;;;9.10;2.05;;;;;;;14.57;100.00;99330.78;4975687;28;20027;-80
2021/07/31 05:02:43;;;;;;;10.00;2.20;;;;;;;14.56;100.00;99333.44;4976765;28;20027;-80
2021/07/31 05:05:09;;;;;;;8.05;2.15;;;;;;;14.58;100.00;99336.81;4976745;28;20027;-80
2021/07/31 05:07:34;;;;;;;7.68;1.60;;;;;;;14.50;100.00;99326.75;4976233;28;20026;-80
2021/07/31 05:09:59;;;;;;;8.15;2.00;;;;;;;14.50;100.00;99329.38;4977145;28;20045;-80
2021/07/31 05:12:25;;;;;;;7.43;2.08;;;;;;;14.63;100.00;99329.59;4975175;28;20107;-80
2021/07/31 05:14:51;;;;;;;7.22;1.75;;;;;;;14.61;100.00;99323.63;4976330;28;20038;-80
2021/07/31 05:17:16;;;;;;;5.80;1.80;;;;;;;14.61;100.00;99331.44;4976413;28;20109;-80
2021/07/31 05:19:42;;;;;;;8.77;2.05;;;;;;;14.75;100.00;99331.53;4980884;28;20054;-80
2021/07/31 05:22:07;;;;;;;6.10;1.70;;;;;;;14.86;100.00;99325.72;4980645;28;20030;-80
2021/07/31 05:24:34;;;;;;;6.97;1.70;;;;;;;15.18;100.00;99331.75;4980496;28;20029;-80
2021/07/31 05:27:00;;;;;;;7.32;1.85;;;;;;;15.15;100.00;99329.31;5007542;23;20115;-82
2021/07/31 05:29:25;;;;;;;15.02;1.90;;;;;;;15.09;100.00;99314.81;4999797;28;20057;-83
2021/07/31 05:31:50;;;;;;;9.00;1.85;;;;;;;14.83;100.00;99316.28;5000825;28;20022;-83
2021/07/31 05:34:15;;;;;;;8.60;1.90;;;;;;;14.82;100.00;99316.38;4997433;28;20473;-83
2021/07/31 05:36:41;;;;;;;5.50;1.50;;;;;;;14.88;100.00;99311.66;4997464;28;20030;-83
2021/07/31 05:39:06;;;;;;;10.70;1.73;;;;;;;14.85;100.00;99310.97;4997440;28;20026;-83
2021/07/31 05:41:31;;;;;;;6.97;1.48;;;;;;;15.04;100.00;99323.84;4997722;28;20390;-83
2021/07/31 05:43:56;;;;;;;6.57;1.60;;;;;;;15.06;100.00;99316.78;4996728;28;20030;-83
2021/07/31 05:46:22;;;;;;;6.90;1.67;;;;;;;14.95;100.00;99322.59;4996171;28;20033;-84
2021/07/31 05:48:49;;;;;;;9.32;2.00;;;;;;;14.90;100.00;99320.25;4995886;28;20052;-84
2021/07/31 05:51:14;;;;;;;7.00;2.20;;;;;;;15.00;100.00;99314.50;4994762;28;20030;-83
2021/07/31 05:53:40;;;;;;;6.25;1.80;;;;;;;15.06;100.00;99315.00;4995768;28;20023;-83
2021/07/31 05:56:11;;;;;;;5.60;1.60;;;;;;;15.12;100.00;99326.88;4996478;28;20061;-83
2021/07/31 05:58:37;;;;;;;5.45;1.52;;;;;;;15.19;100.00;99322.97;4995851;28;20030;-83
2021/07/31 06:01:06;;;;;;;6.57;1.63;;;;;;;15.20;100.00;99320.25;4995961;28;20030;-83
2021/07/31 06:03:35;;;;;;;5.97;1.40;;;;;;;15.28;100.00;99314.59;4994249;28;20085;-84
2021/07/31 06:06:00;;;;;;;9.27;2.10;;;;;;;15.39;100.00;99320.06;4993941;28;20398;-83
2021/07/31 06:08:26;;;;;;;6.28;1.48;;;;;;;15.25;100.00;99324.41;4994065;28;20022;-84
2021/07/31 06:10:58;;;;;;;9.95;1.73;;;;;;;15.42;100.00;99317.28;4993808;28;20030;-84
2021/07/31 06:13:23;;;;;;;7.78;1.77;;;;;;;15.54;100.00;99315.69;4995148;28;20026;-85
2021/07/31 06:15:49;;;;;;;7.03;1.90;;;;;;;15.69;100.00;99321.00;4994990;28;20072;-84
2021/07/31 06:18:14;;;;;;;6.35;1.40;;;;;;;15.72;100.00;99323.44;4995410;28;20041;-84
2021/07/31 06:20:39;;;;;;;11.70;2.03;;;;;;;15.65;100.00;99323.75;4993789;28;20487;-83
2021/07/31 06:23:04;;;;;;;8.02;2.20;;;;;;;15.58;100.00;99319.00;4994517;28;20030;-83
2021/07/31 06:25:30;;;;;;;12.07;1.85;;;;;;;15.37;100.00;99319.31;4995757;28;20027;-84
2021/07/31 06:27:55;;;;;;;9.63;2.05;;;;;;;15.57;100.00;99320.75;4995797;28;20483;-84
2021/07/31 06:30:20;;;;;;;8.75;1.58;;;;;;;15.48;100.00;99316.06;4994597;28;20026;-84
2021/07/31 06:32:48;;;;;;;5.47;1.35;;;;;;;15.46;100.00;99314.47;4994567;28;20029;-84
2021/07/31 06:35:15;;;;;;;5.60;1.77;;;;;;;15.43;100.00;99313.72;4995014;28;20073;-84
2021/07/31 06:37:40;;;;;;;8.02;1.67;;;;;;;15.38;100.00;99314.91;4994687;28;20030;-83
2021/07/31 06:40:07;;;;;;;6.57;1.50;;;;;;;15.40;100.00;99313.91;4994792;28;20395;-84
2021/07/31 06:42:32;;;;;;;6.07;1.90;;;;;;;15.70;100.00;99315.69;4995551;28;20529;-83
2021/07/31 06:44:57;;;;;;;6.78;1.70;;;;;;;15.68;100.00;99304.47;4994887;28;20090;-84
2021/07/31 06:47:23;;;;;;;6.88;1.70;;;;;;;15.75;100.00;99304.94;4996131;28;20030;-83
2021/07/31 06:49:48;;;;;;;6.45;1.50;;;;;;;15.66;100.00;99317.59;4996874;28;20045;-83
2021/07/31 06:52:14;;;;;;;6.65;1.70;;;;;;;15.68;100.00;99311.47;4998606;28;20109;-83
2021/07/31 06:54:40;;;;;;;7.32;1.70;;;;;;;15.87;100.00;99309.44;4998841;28;20073;-83
2021/07/31 06:57:10;;;;;;;13.27;1.80;;;;;;;15.81;100.00;99308.03;4997313;28;20474;-83
2021/07/31 06:59:36;;;;;;;6.68;1.70;;;;;;;15.97;100.00;99313.16;5000619;28;20479;-82
2021/07/31 07:02:01;;;;;;;7.70;1.75;;;;;;;16.01;100.00;99311.22;5000213;28;20113;-82
2021/07/31 07:04:26;;;;;;;7.30;2.20;;;;;;;17.65;96.21;99304.19;4998522;28;20073;-82
2021/07/31 07:06:52;;;;;;;9.23;1.77;;;;;;;17.70;92.31;99299.50;4996746;28;20025;-81
2021/07/31 07:09:17;;;;;;;6.78;1.70;;;;;;;18.57;88.91;99300.47;4998234;28;20022;-81
2021/07/31 07:11:43;;;;;;;10.45;1.50;;;;;;;18.29;86.94;99290.25;5000003;28;20058;-82
2021/07/31 07:14:08;;;;;;;10.55;2.00;;;;;;;17.42;93.59;99297.03;4998225;28;20593;-83
2021/07/31 07:16:34;;;;;;;8.43;1.63;;;;;;;17.25;96.74;99296.38;4999556;28;20038;-83
2021/07/31 07:18:59;;;;;;;5.88;1.70;;;;;;;17.01;97.68;99296.19;5001474;28;20033;-83
2021/07/31 07:21:25;;;;;;;7.40;1.60;;;;;;;16.77;97.26;99293.38;5002445;28;20034;-83
2021/07/31 07:23:50;;;;;;;5.63;1.60;;;;;;;16.58;100.00;99292.84;4999986;28;20019;-84
2021/07/31 07:26:15;;;;;;;7.95;1.58;;;;;;;16.53;99.02;99284.44;4999015;28;20034;-84
2021/07/31 07:28:40;;;;;;;5.25;1.60;;;;;;;16.87;97.51;99287.56;5001001;28;20049;-84
2021/07/31 07:31:10;;;;;;;6.68;1.60;;;;;;;16.90;96.64;99287.34;5000820;28;20026;-83
2021/07/31 07:33:36;;;;;;;8.05;1.80;;;;;;;16.92;97.25;99286.31;5001853;28;20019;-83
2021/07/31 07:36:01;;;;;;;10.07;1.98;;;;;;;16.67;97.02;99291.44;5000433;28;20038;-84
2021/07/31 07:38:27;;;;;;;6.63;1.75;;;;;;;16.83;96.23;99292.16;4999350;28;20030;-83
2021/07/31 07:40:52;;;;;;;6.63;1.40;;;;;;;16.84;98.20;99290.38;5001076;28;20038;-83
2021/07/31 07:43:18;;;;;;;5.95;1.60;;;;;;;16.29;99.46;99298.13;4997095;28;20053;-85
2021/07/31 07:45:45;;;;;;;5.90;1.50;;;;;;;16.19;100.00;99294.38;4998116;28;20058;-83
2021/07/31 07:48:11;;;;;;;6.53;1.73;;;;;;;16.17;100.00;99304.13;4998365;28;20030;-83
2021/07/31 07:51:05;;;;;;;7.05;1.98;;;;;;;16.41;99.89;99290.44;5005458;28;20026;-83
2021/07/31 07:53:31;;;;;;;5.70;1.40;;;;;;;16.44;100.00;99295.47;5002894;28;20034;-82
2021/07/31 07:55:56;;;;;;;6.80;1.50;;;;;;;16.33;100.00;99296.16;5003107;28;20121;-84
2021/07/31 07:58:21;;;;;;;8.02;2.00;;;;;;;16.28;100.00;99298.22;4996204;28;20387;-83
2021/07/31 08:00:46;;;;;;;6.85;1.70;;;;;;;16.43;100.00;99309.50;5002415;28;20110;-82
2021/07/31 08:03:12;;;;;;;9.20;1.90;;;;;;;16.17;100.00;99309.34;4995863;28;20018;-83
2021/07/31 08:05:38;;;;;;;6.40;1.70;;;;;;;16.17;100.00;99298.91;4998279;28;20022;-83
2021/07/31 08:08:05;;;;;;;9.63;1.75;;;;;;;16.25;100.00;99294.00;4997630;28;20026;-84
2021/07/31 08:10:30;;;;;;;7.07;1.70;;;;;;;16.56;100.00;99306.06;4997647;28;20056;-84
2021/07/31 08:12:56;;;;;;;6.20;1.35;;;;;;;16.74;100.00;99309.25;4995548;28;20026;-83
2021/07/31 08:15:21;;;;;;;8.30;1.77;;;;;;;18.23;91.49;99283.66;5002373;28;20026;-82
2021/07/31 08:17:46;;;;;;;6.43;1.60;;;;;;;18.05;93.54;99291.00;5000446;28;20483;-82
2021/07/31 08:20:12;;;;;;;6.13;1.83;;;;;;;18.35;90.57;99295.03;5003895;28;20045;-82
2021/07/31 08:22:37;;;;;;;9.18;1.95;;;;;;;17.92;93.15;99290.19;5003946;28;20440;-82
2021/07/31 08:25:03;;;;;;;6.57;1.42;;;;;;;17.86;93.67;99283.56;5003614;28;20026;-82
2021/07/31 08:27:28;;;;;;;6.47;1.40;;;;;;;18.15;92.08;99284.16;5002051;28;20027;-82
2021/07/31 08:29:53;;;;;;;6.05;1.85;;;;;;;18.34;90.51;99290.75;5002254;28;20053;-82
2021/07/31 08:32:19;;;;;;;7.03;1.70;;;;;;;18.26;89.98;99287.84;5005378;28;20032;-82
2021/07/31 08:34:44;;;;;;;4.93;1.27;;;;;;;18.07;91.27;99288.25;5004763;28;20076;-82
2021/07/31 08:37:10;;;;;;;4.07;1.27;;;;;;;17.72;92.97;99283.63;5002889;28;20138;-82
2021/07/31 08:39:39;;;;;;;5.53;1.63;;;;;;;17.57;95.58;99295.16;5003724;28;20360;-82
2021/07/31 08:42:05;;;;;;;4.70;1.55;;;;;;;17.87;92.33;99301.00;5004224;28;20030;-82
2021/07/31 08:44:36;;;;;;;6.70;1.58;;;;;;;17.12;92.68;99292.91;5004437;28;20478;-83
2021/07/31 08:47:04;;;;;;;5.82;1.52;;;;;;;16.83;96.74;99292.16;5003752;28;20030;-82
2021/07/31 08:49:31;;;;;;;7.80;1.70;;;;;;;16.91;97.62;99308.22;5005513;28;20508;-82
2021/07/31 08:51:57;;;;;;;5.72;1.60;;;;;;;16.93;97.21;99300.25;5003085;28;20030;-83
2021/07/31 08:54:22;;;;;;;6.78;1.75;;;;;;;16.87;98.36;99311.13;5002660;28;20073;-82
2021/07/31 08:56:48;;;;;;;6.78;1.50;;;;;;;16.73;97.18;99301.50;5003488;28;20058;-83
2021/07/31 08:59:13;;;;;;;7.68;2.00;;;;;;;16.93;97.86;99308.97;5001870;28;20026;-83
2021/07/31 09:01:38;;;;;;;6.05;1.45;;;;;;;17.79;92.16;99297.19;5001938;28;20042;-83
2021/07/31 09:04:13;;;;;;;7.07;1.77;;;;;;;18.23;89.80;99312.50;4999947;28;21955;-82
2021/07/31 09:06:39;;;;;;;5.60;1.58;;;;;;;18.80;88.17;99301.44;5000977;28;20101;-83
2021/07/31 09:09:04;;;;;;;4.70;1.60;;;;;;;18.47;88.55;99294.16;4996562;28;20026;-84
2021/07/31 09:11:30;;;;;;;7.13;1.38;;;;;;;18.17;90.33;99292.78;4998185;28;20026;-83
2021/07/31 09:14:14;;;;;;;7.50;1.60;;;;;;;18.33;87.46;99296.97;5004164;28;20037;-83
2021/07/31 09:16:41;;;;;;;9.30;2.25;;;;;;;18.64;86.14;99290.34;4998226;28;20391;-84
2021/07/31 09:19:11;;;;;;;6.18;1.80;;;;;;;19.28;82.25;99282.22;4996251;28;20120;-84
2021/07/31 09:21:42;;;;;;;7.07;1.98;;;;;;;19.26;83.54;99286.72;4994827;28;20505;-85
2021/07/31 09:24:34;;;;;;;6.68;1.80;;;;;;;19.09;82.97;99286.19;4996030;28;20037;-84
2021/07/31 09:26:59;;;;;;;7.40;2.10;;;;;;;19.01;84.83;99288.53;4991088;28;20045;-83
2021/07/31 09:29:30;;;;;;;8.02;1.67;;;;;;;18.28;86.17;99291.19;4995428;28;20467;-84
2021/07/31 09:31:58;;;;;;;5.82;1.60;;;;;;;18.67;85.52;99284.03;4994476;28;20058;-84
2021/07/31 09:34:47;;;;;;;7.75;1.77;;;;;;;19.23;84.57;99281.69;4995225;28;20076;-84
2021/07/31 09:37:23;;;;;;;7.53;1.67;;;;;;;19.04;83.39;99269.09;4984917;28;20046;-84
2021/07/31 09:39:59;;;;;;;6.50;1.55;;;;;;;19.21;85.39;99280.97;4994353;28;20048;-84
2021/07/31 09:42:29;;;;;;;6.57;1.55;;;;;;;21.11;74.29;99280.13;4995184;28;20022;-84
2021/07/31 09:44:56;;;;;;;4.75;1.50;;;;;;;21.11;72.81;99271.38;4994046;28;20487;-85
2021/07/31 09:47:21;;;;;;;10.20;2.00;;;;;;;21.20;74.13;99275.88;4993995;28;20498;-85
2021/07/31 09:49:46;;;;;;;7.60;1.70;;;;;;;20.57;72.19;99269.66;4994016;28;20026;-85
2021/07/31 09:52:25;;;;;;;6.70;1.60;;;;;;;19.18;78.89;99257.53;4994396;28;20030;-85
2021/07/31 09:54:52;;;;;;;5.82;1.63;;;;;;;18.38;85.66;99265.94;4994070;28;20031;-85
2021/07/31 09:57:18;;;;;;;5.82;1.70;;;;;;;18.07;85.46;99276.00;4994179;28;20030;-85
2021/07/31 09:59:50;;;;;;;6.38;1.85;;;;;;;17.97;87.85;99274.94;4994027;28;20041;-85
2021/07/31 10:02:17;;;;;;;8.43;1.52;;;;;;;18.05;87.14;99267.41;4995058;28;20094;-85
2021/07/31 10:04:45;;;;;;;9.40;1.65;;;;;;;18.37;84.73;99259.84;4993993;28;20022;-85
2021/07/31 10:07:12;;;;;;;4.28;1.20;;;;;;;18.48;84.44;99269.63;4993963;28;20496;-86
2021/07/31 10:09:40;;;;;;;4.05;1.33;;;;;;;18.44;84.13;99268.13;4993649;28;20022;-85
2021/07/31 10:12:09;;;;;;;9.27;1.55;;;;;;;17.93;85.73;99269.09;4994575;28;20026;-85
2021/07/31 10:14:34;;;;;;;8.52;1.60;;;;;;;17.84;88.32;99271.50;4994783;28;20034;-84
2021/07/31 10:17:00;;;;;;;6.25;1.83;;;;;;;19.36;84.46;99264.03;4994934;28;20098;-84
2021/07/31 10:19:25;;;;;;;5.10;1.23;;;;;;;19.84;81.70;99269.19;4993687;28;20026;-84
2021/07/31 10:22:00;;;;;;;3.90;1.33;;;;;;;19.07;79.40;99267.06;4993416;28;20116;-84
2021/07/31 10:24:30;;;;;;;5.88;1.60;;;;;;;19.26;83.41;99268.31;4993404;28;20057;-84
2021/07/31 10:27:17;;;;;;;4.55;1.33;;;;;;;18.75;81.28;99264.19;4993101;28;20034;-85
2021/07/31 10:29:44;;;;;;;6.57;1.38;;;;;;;19.92;77.10;99269.44;4993390;28;20026;-84
2021/07/31 10:32:21;;;;;;;6.00;1.33;;;;;;;20.23;72.47;99261.78;4993467;28;20030;-84
2021/07/31 10:34:48;;;;;;;6.32;1.38;;;;;;;20.12;74.76;99257.34;4993281;28;20030;-84
2021/07/31 10:37:29;;;;;;;8.02;1.73;;;;;;;19.30;78.84;99257.47;4992587;28;20027;-84
2021/07/31 10:39:55;;;;;;;6.63;1.15;;;;;;;19.06;79.78;99249.63;4993529;28;20026;-84
2021/07/31 10:42:21;;;;;;;4.57;1.08;;;;;;;18.64;82.41;99257.03;4996075;28;20026;-83
2021/07/31 10:45:17;;;;;;;6.20;1.33;;;;;;;18.51;80.59;99256.25;5001457;28;20380;-84
2021/07/31 10:47:47;;;;;;;5.15;1.33;;;;;;;18.55;81.76;99256.88;4995058;28;20049;-84
2021/07/31 10:50:27;;;;;;;5.47;1.25;;;;;;;18.40;83.23;99257.03;4994368;28;20394;-85
2021/07/31 10:53:08;;;;;;;5.53;1.35;;;;;;;18.00;86.65;99248.50;4993210;28;20052;-85
2021/07/31 10:55:36;;;;;;;3.85;1.13;;;;;;;17.77;89.50;99257.13;4993142;28;20042;-85
2021/07/31 10:58:07;;;;;;;6.35;1.45;;;;;;;17.87;89.57;99263.44;4992879;28;20022;-85
2021/07/31 11:00:40;;;;;;;5.38;1.35;;;;;;;17.67;90.08;99252.50;4993058;28;20376;-85
2021/07/31 11:03:13;;;;;;;2.92;0.80;;;;;;;17.65;91.34;99264.88;4994046;28;20027;-84
2021/07/31 11:05:47;;;;;;;4.25;1.00;;;;;;;17.66;88.29;99256.03;4993533;28;20046;-85
2021/07/31 11:08:13;;;;;;;;;;;;;;;17.71;87.93;99268.84;4993370;28;20116;-85
2021/07/31 11:10:42;;;;;;;3.80;1.20;;;;;;;18.50;84.42;99257.19;4993548;28;19957;-85
2021/07/31 11:13:12;;;;;;;2.78;0.80;;;;;;;18.83;82.04;99250.47;4995202;28;20030;-85
2021/07/31 11:15:56;;;;;;;3.10;0.88;;;;;;;18.90;81.44;99254.31;4995430;28;20022;-85
2021/07/31 11:18:22;;;;;;;5.85;1.17;;;;;;;18.36;84.24;99260.81;5004033;28;20030;-84
2021/07/31 11:20:48;;;;;;;3.72;0.80;;;;;;;18.07;87.66;99257.66;5017223;28;20015;-84
2021/07/31 11:23:14;;;;;;;7.22;1.00;;;;;;;18.08;88.05;99256.69;5009524;28;20036;-84
2021/07/31 11:25:41;;;;;;;3.47;1.02;;;;;;;18.55;86.09;99262.97;5017303;28;20094;-85